Aérodrome :
LOGIN :

S'inscrire | Disclaimer

   EN    FR    IT 

 










Légende :    VFR   VFR Marginal   IFR   IFR Intensif   IFR Très Intensif
Visi : 
Plafond : 
>= 8 km
>= 3000ft
5 à 8 km
1000 à 3000 ft
1500m à 5 km
500 à 1000 ft
800 à 1500m
200 à 500 ft
< 800m
< 200 ft
Symboles :   Orages  Brouillard  Fortes neiges  Fortes précipitations  Vent > 20 kt
SIGMETs :   Divers  Orages  Givrage  Turbulence  Onde Orograph.  Cendres Volcan.






- Altitude de l'aérodrome : -15 ft
- Code IATA : RTM


EHRD - Rotterdam Zestienhoven

DERNIER METAR :
  • 201425Z AUTO 09005KT 9999 NSC 06/03 Q1015 NOSIG

METARs EXPIRÉS :
  • 201355Z AUTO 10006KT 070V130 9999 NSC 06/02 Q1016 NOSIG
  • 201325Z AUTO 09006KT 070V130 9999 NSC 06/02 Q1016 NOSIG
  • 201255Z AUTO 09005KT 040V140 9999 NSC 06/02 Q1017 NOSIG
  • 201225Z AUTO 08006KT 9999 NSC 06/02 Q1017 NOSIG
  • 201155Z AUTO 13006KT 100V170 9999 NSC 06/02 Q1017 NOSIG

TAF TAF EHRD
Valide du 20 à 12h jusqu'au 21 à 18h UTC


201115Z 2012/2118 12006KT CAVOK
BECMG 2017/2020 2500 BR BKN003
BECMG 2103/2106 4000 BKN007
BECMG 2107/2110 9999 NSW SCT012



MET'MAP, la Météo Aéronautique d'un coup d'oeil ! - Copyright ORBIFLY Décembre 2007 - Disclaimer

ORBIFLY MET'MAP TEAM :

Programmation & Développement : Alexandra Zaïnal
Conception & Développement : Baudouin d'Aumeries
Co-Programmation & Développement : Marc-Olivier Méhu
Soutien technique & logistique : Manuel Goepfert

Contact : metmap@orbifly.com




SOURCES & CREDITS :

   NOAA